Time;durP1;ratioP1;P1;durP2;ratioP2;P2;SDS_P1;SDS_P2;PMS_P1;PMS_P2;Temp;Humidity;BMP_temperature;BMP_pressure;BME280_temperature;BME280_humidity;BME280_pressure;Samples;Min_cycle;Max_cycle;Signal;HPM_P1;HPM_P2
2023/09/29 00:00:17;;;;;;;15.20;10.60;;;;;;;17.92;100.00;100529.32;104363;1254;60456;-65
2023/09/29 00:02:46;;;;;;;15.60;11.30;;;;;;;17.90;100.00;100530.10;104402;1257;73543;-64
2023/09/29 00:05:17;;;;;;;18.80;11.60;;;;;;;17.88;100.00;100530.41;104436;1269;69593;-65
2023/09/29 00:07:46;;;;;;;15.90;11.50;;;;;;;17.85;100.00;100531.45;104472;1268;72515;-65
2023/09/29 00:10:17;;;;;;;17.10;12.40;;;;;;;17.84;100.00;100531.14;104376;1254;60903;-65
2023/09/29 00:12:45;;;;;;;18.50;12.50;;;;;;;17.87;100.00;100526.92;104313;1257;59819;-65
2023/09/29 00:15:15;;;;;;;13.10;11.10;;;;;;;17.84;100.00;100525.66;104248;1257;74524;-65
2023/09/29 00:17:42;;;;;;;15.60;12.00;;;;;;;17.83;100.00;100523.41;108425;1252;69618;-65
2023/09/29 00:22:42;;;;;;;16.30;11.70;;;;;;;17.85;100.00;100521.03;108395;1253;61830;-64
2023/09/29 00:25:09;;;;;;;15.00;11.90;;;;;;;17.85;100.00;100523.29;108468;1254;59675;-63
2023/09/29 00:27:37;;;;;;;;;;;;;;;17.89;100.00;100523.79;108537;1252;73668;-63
2023/09/29 00:30:05;;;;;;;;;;;;;;;17.89;100.00;100521.67;108497;1252;69478;-64
2023/09/29 00:32:33;;;;;;;17.00;11.30;;;;;;;17.84;100.00;100523.00;108289;1253;72754;-65
2023/09/29 00:35:00;;;;;;;12.50;11.00;;;;;;;17.81;100.00;100520.16;108259;1253;60490;-68
2023/09/29 00:37:29;;;;;;;;;;;;;;;17.79;100.00;100522.95;108222;1253;59818;-67
2023/09/29 00:39:56;;;;;;;13.90;11.20;;;;;;;17.79;100.00;100523.64;108251;1252;73608;-67
2023/09/29 00:42:24;;;;;;;16.80;11.60;;;;;;;17.81;100.00;100522.81;108291;1253;70241;-67
2023/09/29 00:44:53;;;;;;;13.00;11.00;;;;;;;17.83;100.00;100528.00;108350;1253;72338;-67
2023/09/29 00:47:20;;;;;;;;;;;;;;;17.84;100.00;100525.84;108422;1254;61869;-67
2023/09/29 00:49:48;;;;;;;17.70;11.60;;;;;;;17.84;100.00;100524.28;108451;1252;59548;-67
2023/09/29 00:52:18;;;;;;;12.30;11.00;;;;;;;17.83;100.00;100523.44;108313;1252;74582;-67
2023/09/29 00:54:45;;;;;;;;;;;;;;;17.83;100.00;100524.30;108413;1254;69225;-69
2023/09/29 00:57:14;;;;;;;13.70;10.70;;;;;;;17.83;100.00;100522.70;108344;1251;72580;-67
2023/09/29 00:59:41;;;;;;;15.50;12.10;;;;;;;17.80;100.00;100520.91;108553;1252;61465;-67
2023/09/29 01:02:10;;;;;;;13.70;11.10;;;;;;;17.77;100.00;100521.61;108581;1252;59805;-67
2023/09/29 01:04:38;;;;;;;14.80;12.10;;;;;;;17.72;100.00;100524.78;108508;1252;74029;-67
2023/09/29 01:07:07;;;;;;;21.50;11.10;;;;;;;17.69;100.00;100523.70;108363;1252;70039;-66
2023/09/29 01:09:38;;;;;;;15.10;11.20;;;;;;;17.66;100.00;100522.63;108595;1251;71484;-67
2023/09/29 01:12:08;;;;;;;14.20;11.60;;;;;;;17.66;100.00;100520.50;108408;1252;60407;-66
2023/09/29 01:14:36;;;;;;;15.40;11.60;;;;;;;17.66;100.00;100522.64;108669;1251;59675;-66
2023/09/29 01:17:04;;;;;;;15.40;11.40;;;;;;;17.66;100.00;100524.41;108508;1252;73656;-67
2023/09/29 01:19:35;;;;;;;17.20;12.10;;;;;;;17.65;100.00;100523.41;108057;1253;69268;-66
2023/09/29 01:22:06;;;;;;;20.10;13.10;;;;;;;17.64;100.00;100524.19;108660;1252;71321;-66
2023/09/29 01:24:34;;;;;;;20.10;11.90;;;;;;;17.63;100.00;100526.20;108370;1253;61629;-66
2023/09/29 01:27:02;;;;;;;18.50;12.60;;;;;;;17.63;100.00;100528.11;108550;1252;58756;-66
2023/09/29 01:29:30;;;;;;;15.10;12.00;;;;;;;17.58;100.00;100522.74;108317;1252;73128;-66
2023/09/29 01:31:57;;;;;;;;;;;;;;;17.55;100.00;100524.16;108475;1252;69812;-66
2023/09/29 01:34:31;;;;;;;15.40;11.90;;;;;;;17.54;100.00;100522.11;108319;1252;73398;-66
2023/09/29 01:37:02;;;;;;;18.40;12.50;;;;;;;17.49;100.00;100521.83;108508;1252;61491;-67
2023/09/29 01:39:30;;;;;;;14.90;12.00;;;;;;;17.45;100.00;100519.91;108412;1252;60059;-67
2023/09/29 01:41:59;;;;;;;15.30;12.20;;;;;;;17.53;100.00;100525.34;108393;1252;74039;-67
2023/09/29 01:44:28;;;;;;;19.00;12.40;;;;;;;17.56;100.00;100520.78;108510;1252;69285;-67
2023/09/29 01:46:56;;;;;;;17.20;11.80;;;;;;;17.55;100.00;100520.42;108307;1252;71411;-67
2023/09/29 01:49:23;;;;;;;15.00;11.90;;;;;;;17.55;100.00;100522.77;108438;1253;61487;-67
2023/09/29 01:51:51;;;;;;;14.20;11.60;;;;;;;17.51;100.00;100516.23;108528;1252;60105;-67
2023/09/29 01:54:19;;;;;;;17.70;12.20;;;;;;;17.47;100.00;100520.52;108507;1252;74061;-67
2023/09/29 01:56:47;;;;;;;18.60;13.00;;;;;;;17.45;100.00;100523.48;108172;1252;69155;-61
2023/09/29 01:59:15;;;;;;;16.10;12.60;;;;;;;17.38;100.00;100518.05;108349;1253;72376;-66
2023/09/29 02:01:42;;;;;;;17.20;11.90;;;;;;;17.37;100.00;100517.59;108137;1254;61774;-63
2023/09/29 02:04:10;;;;;;;16.90;12.70;;;;;;;17.32;100.00;100523.16;108325;1252;59759;-66
2023/09/29 02:06:40;;;;;;;15.30;11.90;;;;;;;17.27;100.00;100525.23;108395;1252;73551;-64
2023/09/29 02:09:10;;;;;;;13.20;11.30;;;;;;;17.22;100.00;100523.58;108527;1250;70122;-64
2023/09/29 02:11:39;;;;;;;14.20;12.00;;;;;;;17.15;100.00;100523.06;108554;1252;72280;-64
2023/09/29 02:14:07;;;;;;;18.50;11.60;;;;;;;17.11;100.00;100521.33;108459;1252;61494;-64
2023/09/29 02:16:35;;;;;;;15.80;11.40;;;;;;;17.07;100.00;100521.89;108285;1252;59774;-64
2023/09/29 02:19:04;;;;;;;15.70;11.40;;;;;;;17.04;100.00;100523.48;108021;1252;73605;-64
2023/09/29 02:21:34;;;;;;;15.20;11.60;;;;;;;17.00;100.00;100522.10;108526;1252;69206;-64
2023/09/29 02:24:05;;;;;;;15.40;11.90;;;;;;;16.97;100.00;100520.73;108679;1251;73277;-64
2023/09/29 02:26:34;;;;;;;14.90;11.40;;;;;;;16.94;100.00;100523.52;108643;1252;62579;-64
2023/09/29 02:29:04;;;;;;;19.00;12.50;;;;;;;16.93;100.00;100524.62;108529;1252;59689;-65
2023/09/29 02:31:31;;;;;;;15.20;11.80;;;;;;;16.89;100.00;100526.61;108315;1252;73707;-64
2023/09/29 02:34:01;;;;;;;15.70;11.40;;;;;;;16.96;100.00;100527.48;108358;1252;68452;-64
2023/09/29 02:36:31;;;;;;;16.40;12.10;;;;;;;16.97;100.00;100531.17;108375;1252;72395;-65
2023/09/29 02:39:03;;;;;;;13.30;11.40;;;;;;;16.96;100.00;100528.23;108432;1251;61421;-65
2023/09/29 02:41:38;;;;;;;15.50;11.50;;;;;;;16.93;100.00;100529.94;108125;1252;60132;-65
2023/09/29 02:44:07;;;;;;;17.40;11.80;;;;;;;16.90;100.00;100530.48;108423;1252;74347;-66
2023/09/29 02:46:35;;;;;;;12.70;10.70;;;;;;;16.88;100.00;100529.84;108234;1253;69022;-63
2023/09/29 02:49:03;;;;;;;17.70;11.90;;;;;;;16.87;100.00;100527.08;108531;1252;72342;-63
2023/09/29 02:51:31;;;;;;;16.60;11.70;;;;;;;16.84;100.00;100525.48;108661;1251;60352;-63
2023/09/29 02:53:59;;;;;;;17.00;11.70;;;;;;;16.82;100.00;100528.43;108358;1252;60748;-64
2023/09/29 02:56:27;;;;;;;;;;;;;;;16.80;100.00;100527.98;108462;1253;72673;-64
2023/09/29 02:58:54;;;;;;;;;;;;;;;16.79;100.00;100527.50;108464;1252;69040;-63
2023/09/29 03:01:23;;;;;;;14.80;11.80;;;;;;;16.77;100.00;100527.64;108500;1252;72425;-64
2023/09/29 03:03:54;;;;;;;16.20;11.60;;;;;;;16.74;100.00;100527.94;108474;1252;60896;-63
2023/09/29 03:06:23;;;;;;;14.20;11.70;;;;;;;16.72;100.00;100530.90;108486;1252;59800;-64
2023/09/29 03:08:58;;;;;;;17.70;11.60;;;;;;;16.70;100.00;100531.52;108493;1251;74074;-64
2023/09/29 03:11:27;;;;;;;18.70;12.00;;;;;;;16.68;100.00;100532.52;108547;1252;69533;-63
2023/09/29 03:13:55;;;;;;;13.20;11.50;;;;;;;16.66;100.00;100527.88;108523;1252;72468;-64
2023/09/29 03:16:25;;;;;;;19.10;11.70;;;;;;;16.63;100.00;100529.26;108524;1252;61563;-65
2023/09/29 03:18:55;;;;;;;13.40;12.00;;;;;;;16.58;100.00;100525.61;108518;1251;59654;-64
2023/09/29 03:21:23;;;;;;;14.30;12.50;;;;;;;16.59;100.00;100523.43;108343;1253;74077;-63
2023/09/29 03:23:51;;;;;;;15.40;11.50;;;;;;;16.60;100.00;100522.66;108357;1252;69140;-65
2023/09/29 03:26:22;;;;;;;16.10;12.00;;;;;;;16.60;100.00;100523.09;108563;1251;72933;-65
2023/09/29 03:28:50;;;;;;;18.30;11.60;;;;;;;16.56;100.00;100523.95;108598;1252;60377;-65
2023/09/29 03:31:18;;;;;;;18.70;12.20;;;;;;;16.55;100.00;100525.11;108532;1252;58927;-65
2023/09/29 03:33:46;;;;;;;21.90;12.60;;;;;;;16.52;100.00;100524.17;108409;1252;73673;-67
2023/09/29 03:36:14;;;;;;;16.70;12.10;;;;;;;16.51;100.00;100524.04;108495;1252;69206;-66
2023/09/29 03:38:45;;;;;;;17.70;12.70;;;;;;;16.49;100.00;100524.66;108111;1254;72441;-66
2023/09/29 03:41:13;;;;;;;18.40;12.50;;;;;;;16.47;100.00;100523.58;108432;1252;61398;-65
2023/09/29 03:43:41;;;;;;;18.00;12.00;;;;;;;16.45;100.00;100524.59;108504;1250;60123;-66
2023/09/29 03:46:21;;;;;;;14.50;11.40;;;;;;;16.43;100.00;100523.81;108596;1251;74325;-62
2023/09/29 03:48:49;;;;;;;16.70;12.20;;;;;;;16.42;100.00;100521.55;108653;1251;69651;-65
2023/09/29 03:51:23;;;;;;;14.60;11.70;;;;;;;16.39;100.00;100519.02;108455;1252;71144;-65
2023/09/29 03:53:52;;;;;;;16.90;12.40;;;;;;;16.39;100.00;100525.05;108616;1251;61415;-60
2023/09/29 03:56:25;;;;;;;14.70;12.40;;;;;;;16.41;100.00;100523.21;108406;1252;59904;-61
2023/09/29 03:58:53;;;;;;;20.90;12.20;;;;;;;16.40;100.00;100523.44;108596;1251;73721;-61
2023/09/29 04:01:22;;;;;;;13.80;11.80;;;;;;;16.40;100.00;100524.64;108372;1252;69447;-61
2023/09/29 04:03:49;;;;;;;;;;;;;;;16.41;100.00;100527.09;108383;1252;72154;-61
2023/09/29 04:06:18;;;;;;;17.10;12.00;;;;;;;16.42;100.00;100526.51;108382;1252;61375;-62
2023/09/29 04:08:47;;;;;;;17.80;10.80;;;;;;;16.41;100.00;100527.46;108393;1252;59941;-61
2023/09/29 04:11:14;;;;;;;18.00;11.80;;;;;;;16.41;100.00;100527.08;108301;1252;74127;-62
2023/09/29 04:13:43;;;;;;;17.10;12.20;;;;;;;16.41;100.00;100532.75;108300;1253;69154;-61
2023/09/29 04:18:58;;;;;;;16.60;12.50;;;;;;;15.89;100.00;100530.61;101498;1295;601188;-63
2023/09/29 04:21:26;;;;;;;13.40;11.30;;;;;;;16.30;100.00;100525.16;103674;1275;61816;-64
2023/09/29 04:23:57;;;;;;;18.30;12.50;;;;;;;16.33;100.00;100527.63;103578;1267;60095;-64
2023/09/29 04:26:25;;;;;;;13.70;12.10;;;;;;;16.31;100.00;100530.95;103463;1271;71983;-64
2023/09/29 04:28:53;;;;;;;13.80;12.30;;;;;;;16.31;100.00;100528.08;103744;1267;69163;-65
2023/09/29 04:31:21;;;;;;;17.50;12.70;;;;;;;16.33;100.00;100531.55;103820;1272;72695;-63
2023/09/29 04:33:49;;;;;;;;;;;;;;;16.29;100.00;100527.31;103483;1272;62563;-63
2023/09/29 04:36:17;;;;;;;13.80;11.30;;;;;;;16.28;100.00;100528.47;106884;1263;60460;-63
2023/09/29 04:38:45;;;;;;;15.80;12.30;;;;;;;16.31;100.00;100527.93;106881;1263;73025;-64
2023/09/29 04:41:14;;;;;;;17.40;11.70;;;;;;;16.37;100.00;100526.39;104548;1266;69357;-63
2023/09/29 04:43:44;;;;;;;17.50;12.40;;;;;;;16.38;100.00;100523.52;104130;1266;72897;-63
2023/09/29 04:46:13;;;;;;;13.60;12.20;;;;;;;16.39;100.00;100522.59;103942;1263;61424;-62
2023/09/29 04:48:40;;;;;;;16.60;12.50;;;;;;;16.42;100.00;100523.30;103967;1268;59740;-62
2023/09/29 04:51:08;;;;;;;;;;;;;;;16.45;100.00;100523.70;104194;1260;72933;-64
2023/09/29 04:53:36;;;;;;;12.60;11.30;;;;;;;16.49;100.00;100528.40;103876;1276;69134;-64
2023/09/29 04:56:04;;;;;;;19.20;11.70;;;;;;;16.52;100.00;100530.70;104165;1276;72428;-62
2023/09/29 04:58:32;;;;;;;;;;;;;;;16.56;100.00;100531.23;103896;1268;62228;-64
2023/09/29 05:01:02;;;;;;;13.70;11.60;;;;;;;16.61;100.00;100530.59;104019;1260;59821;-64
2023/09/29 05:03:30;;;;;;;16.40;11.90;;;;;;;16.63;100.00;100533.14;103761;1266;72924;-64
2023/09/29 05:05:58;;;;;;;15.60;12.00;;;;;;;16.66;100.00;100535.66;103898;1266;69971;-64
2023/09/29 05:08:26;;;;;;;16.60;12.50;;;;;;;16.69;100.00;100536.35;104204;1270;72427;-66
2023/09/29 05:10:54;;;;;;;19.30;13.00;;;;;;;16.74;100.00;100537.15;104022;1260;61438;-65
2023/09/29 05:13:22;;;;;;;20.10;13.20;;;;;;;16.78;100.00;100534.80;103864;1261;59884;-66
2023/09/29 05:15:49;;;;;;;;;;;;;;;16.82;100.00;100534.64;103963;1272;73041;-65
2023/09/29 05:18:17;;;;;;;13.70;11.80;;;;;;;16.86;100.00;100534.59;103909;1283;69115;-64
2023/09/29 05:20:45;;;;;;;18.10;12.30;;;;;;;16.93;100.00;100538.80;104140;1279;72296;-65
2023/09/29 05:23:13;;;;;;;16.10;13.20;;;;;;;17.00;100.00;100543.02;104161;1265;61476;-65
2023/09/29 05:25:45;;;;;;;15.40;12.60;;;;;;;17.08;100.00;100542.95;104338;1262;60067;-64
2023/09/29 05:28:13;;;;;;;14.60;12.70;;;;;;;17.17;100.00;100543.34;104436;1263;72734;-65
2023/09/29 05:30:42;;;;;;;;;;;;;;;17.25;100.00;100546.61;104334;1263;70479;-63
2023/09/29 05:33:10;;;;;;;13.60;12.20;;;;;;;17.32;100.00;100544.09;104501;1269;72403;-64
2023/09/29 05:35:39;;;;;;;16.00;12.00;;;;;;;17.38;100.00;100543.90;106363;1257;61788;-64
2023/09/29 05:38:06;;;;;;;16.70;12.60;;;;;;;17.47;100.00;100538.08;107577;1257;60656;-64
2023/09/29 05:40:36;;;;;;;18.70;12.90;;;;;;;17.57;100.00;100540.34;106984;1257;73966;-66
2023/09/29 05:43:09;;;;;;;14.60;12.20;;;;;;;17.66;100.00;100542.16;104630;1262;69051;-65
2023/09/29 05:45:41;;;;;;;19.60;11.50;;;;;;;17.74;100.00;100540.98;103914;1260;72419;-63
2023/09/29 05:48:09;;;;;;;14.90;11.60;;;;;;;17.81;100.00;100538.76;103929;1258;62955;-65
2023/09/29 05:50:37;;;;;;;12.30;11.10;;;;;;;17.90;100.00;100537.05;103911;1257;60889;-65
2023/09/29 05:53:04;;;;;;;17.90;11.40;;;;;;;17.97;100.00;100540.35;104070;1266;73245;-65
2023/09/29 05:55:38;;;;;;;17.70;10.90;;;;;;;18.05;100.00;100538.83;104464;1256;69770;-66
2023/09/29 05:58:06;;;;;;;11.50;10.00;;;;;;;18.12;100.00;100542.12;104410;1257;72380;-65
2023/09/29 06:00:34;;;;;;;14.20;10.40;;;;;;;18.23;100.00;100535.46;104227;1260;61825;-65
2023/09/29 06:03:02;;;;;;;13.40;11.10;;;;;;;18.26;100.00;100526.37;105000;1253;61841;-65
2023/09/29 06:05:29;;;;;;;;;;;;;;;18.42;100.00;100530.05;107054;1254;73324;-65
2023/09/29 06:07:58;;;;;;;15.20;9.30;;;;;;;18.49;100.00;100530.10;104435;1259;68111;-65
2023/09/29 06:10:27;;;;;;;14.80;9.70;;;;;;;18.56;100.00;100529.70;104302;1276;72488;-65
2023/09/29 06:12:54;;;;;;;15.50;9.70;;;;;;;18.67;100.00;100532.38;104688;1257;61607;-65
2023/09/29 06:15:24;;;;;;;14.30;9.60;;;;;;;18.83;100.00;100530.34;104749;1255;59795;-67
2023/09/29 06:17:51;;;;;;;15.00;9.90;;;;;;;18.92;100.00;100532.09;104565;1259;72924;-66
2023/09/29 06:20:19;;;;;;;15.20;9.40;;;;;;;18.99;100.00;100535.72;104486;1259;68311;-68
2023/09/29 06:22:47;;;;;;;12.10;9.90;;;;;;;19.07;100.00;100541.06;104376;1257;72314;-66
2023/09/29 06:25:15;;;;;;;15.90;10.60;;;;;;;19.16;100.00;100538.75;104470;1259;60522;-67
2023/09/29 06:27:42;;;;;;;18.00;9.90;;;;;;;19.23;100.00;100539.18;104237;1260;60098;-65
2023/09/29 06:30:11;;;;;;;13.30;9.50;;;;;;;19.28;100.00;100539.20;104268;1259;73239;-66
2023/09/29 06:32:41;;;;;;;14.40;10.20;;;;;;;19.33;100.00;100539.04;104323;1269;69205;-65
2023/09/29 06:35:11;;;;;;;18.50;9.80;;;;;;;19.40;100.00;100539.13;104532;1258;72249;-66
2023/09/29 06:37:41;;;;;;;11.10;9.60;;;;;;;19.50;100.00;100538.52;108172;1254;61768;-67
2023/09/29 06:40:11;;;;;;;14.70;10.20;;;;;;;19.58;100.00;100539.56;108127;1254;59837;-67
2023/09/29 06:42:41;;;;;;;14.30;9.00;;;;;;;19.66;100.00;100537.27;105853;1257;71795;-66
2023/09/29 06:45:11;;;;;;;11.20;9.60;;;;;;;19.74;100.00;100539.04;107959;1254;69367;-67
2023/09/29 06:47:38;;;;;;;;;;;;;;;19.84;100.00;100543.00;108008;1255;72318;-66
2023/09/29 06:50:10;;;;;;;9.80;8.90;;;;;;;19.92;100.00;100534.84;107966;1254;61906;-67
2023/09/29 06:52:39;;;;;;;12.50;9.10;;;;;;;20.01;100.00;100534.95;104708;1261;59720;-67
2023/09/29 06:55:07;;;;;;;18.00;9.50;;;;;;;20.10;100.00;100538.96;104239;1260;72974;-66
2023/09/29 06:57:37;;;;;;;;;;;;;;;20.17;100.00;100538.98;104409;1260;69070;-66
2023/09/29 07:00:08;;;;;;;10.60;8.60;;;;;;;20.24;100.00;100540.64;104291;1275;72883;-67
2023/09/29 07:02:36;;;;;;;11.40;9.60;;;;;;;20.32;100.00;100543.45;104420;1262;61545;-67
2023/09/29 07:05:05;;;;;;;11.20;9.60;;;;;;;20.42;100.00;100542.11;104266;1255;60094;-66
2023/09/29 07:07:36;;;;;;;10.50;9.00;;;;;;;20.49;100.00;100546.08;104505;1264;72770;-67
2023/09/29 07:10:04;;;;;;;9.80;8.80;;;;;;;20.55;100.00;100544.91;104278;1273;69175;-67
2023/09/29 07:12:34;;;;;;;17.30;8.90;;;;;;;20.66;100.00;100546.49;104360;1259;72505;-67
2023/09/29 07:15:04;;;;;;;12.90;8.90;;;;;;;20.76;100.00;100544.52;104248;1259;61850;-67
2023/09/29 07:17:31;;;;;;;12.60;8.60;;;;;;;20.86;99.80;100541.19;104397;1256;60778;-66
2023/09/29 07:19:59;;;;;;;12.10;8.50;;;;;;;20.94;100.00;100540.17;104300;1262;72885;-65
2023/09/29 07:22:27;;;;;;;;;;;;;;;21.04;100.00;100538.81;104154;1265;69313;-65
2023/09/29 07:24:57;;;;;;;;;;;;;;;21.13;100.00;100537.05;104190;1262;73407;-66
2023/09/29 07:27:29;;;;;;;12.40;8.20;;;;;;;21.20;100.00;100538.85;104280;1262;62386;-64
2023/09/29 07:29:57;;;;;;;10.50;8.60;;;;;;;21.27;100.00;100534.83;104381;1259;59750;-64
2023/09/29 07:32:26;;;;;;;12.40;8.90;;;;;;;21.34;100.00;100533.53;104452;1256;73227;-65
2023/09/29 07:34:54;;;;;;;12.40;8.70;;;;;;;21.45;100.00;100532.27;104441;1258;68549;-64
2023/09/29 07:37:22;;;;;;;11.60;9.00;;;;;;;21.57;100.00;100529.26;106344;1256;72498;-65
2023/09/29 07:39:50;;;;;;;11.70;8.70;;;;;;;21.74;100.00;100533.52;107937;1255;61759;-66
2023/09/29 07:42:17;;;;;;;13.20;8.50;;;;;;;21.90;99.68;100534.45;104777;1262;59371;-65
2023/09/29 07:44:45;;;;;;;12.00;9.30;;;;;;;22.00;96.73;100530.08;104625;1255;74174;-68
2023/09/29 07:47:13;;;;;;;11.70;8.00;;;;;;;22.14;93.39;100531.33;107882;1255;69076;-70
2023/09/29 07:49:41;;;;;;;10.30;8.00;;;;;;;22.28;90.25;100529.77;107821;1256;72967;-73
2023/09/29 07:52:08;;;;;;;10.20;7.60;;;;;;;22.44;85.84;100528.33;106473;1256;61472;-73
2023/09/29 07:54:36;;;;;;;13.10;7.50;;;;;;;22.55;81.49;100527.98;104304;1261;59771;-65
2023/09/29 07:57:03;;;;;;;11.50;7.90;;;;;;;22.67;80.26;100525.81;104128;1260;72896;-64
2023/09/29 07:59:31;;;;;;;14.70;8.30;;;;;;;22.79;79.02;100525.22;104292;1261;68156;-62
2023/09/29 08:01:59;;;;;;;9.60;7.20;;;;;;;22.89;77.71;100523.64;104250;1258;72641;-63
2023/09/29 08:04:27;;;;;;;;;;;;;;;23.01;75.39;100522.18;106612;1258;62010;-63
2023/09/29 08:06:55;;;;;;;16.00;10.20;;;;;;;23.13;72.69;100519.80;105502;1256;59657;-63
2023/09/29 08:09:23;;;;;;;11.20;7.80;;;;;;;23.28;72.89;100520.92;107865;1256;72978;-63
2023/09/29 08:11:51;;;;;;;9.30;7.80;;;;;;;23.46;71.72;100521.94;107199;1256;68227;-63
2023/09/29 08:14:19;;;;;;;11.50;7.90;;;;;;;23.62;69.21;100518.46;104476;1261;72836;-64
2023/09/29 08:16:47;;;;;;;14.30;7.30;;;;;;;23.72;68.98;100517.79;104652;1258;59795;-67
2023/09/29 08:19:14;;;;;;;12.50;7.10;;;;;;;23.82;69.69;100514.78;104340;1256;60116;-64
2023/09/29 08:21:42;;;;;;;8.10;6.50;;;;;;;23.89;67.07;100514.05;104421;1272;72905;-66
2023/09/29 08:24:10;;;;;;;10.80;6.50;;;;;;;23.98;64.86;100508.45;104273;1260;69133;-65
2023/09/29 08:26:41;;;;;;;9.70;6.90;;;;;;;24.07;61.59;100510.49;104546;1263;71417;-66
2023/09/29 08:29:14;;;;;;;8.80;7.10;;;;;;;24.14;63.17;100507.63;104307;1278;60434;-66
2023/09/29 08:31:43;;;;;;;11.20;6.30;;;;;;;24.21;61.28;100505.45;104266;1278;60347;-64
2023/09/29 08:34:13;;;;;;;7.20;5.60;;;;;;;24.32;60.19;100501.80;104266;1256;74053;-63
2023/09/29 08:36:42;;;;;;;8.90;6.50;;;;;;;24.45;58.16;100502.61;104317;1260;72335;-62
2023/09/29 08:39:10;;;;;;;6.80;5.70;;;;;;;24.59;57.05;100503.04;106231;1255;72925;-65
2023/09/29 08:41:43;;;;;;;8.10;5.30;;;;;;;24.73;56.62;100500.90;107938;1255;59232;-63
2023/09/29 08:44:10;;;;;;;8.20;4.80;;;;;;;24.86;55.01;100499.39;104778;1257;60732;-63
2023/09/29 08:46:39;;;;;;;9.90;5.80;;;;;;;24.94;54.95;100500.63;104322;1262;73730;-66
2023/09/29 08:49:08;;;;;;;7.60;5.80;;;;;;;25.03;54.96;100498.02;104983;1254;70049;-64
2023/09/29 08:51:38;;;;;;;9.60;6.00;;;;;;;25.12;53.94;100497.43;104720;1262;73384;-64
2023/09/29 08:54:06;;;;;;;8.80;6.10;;;;;;;25.25;53.04;100495.41;104486;1256;60569;-63
2023/09/29 08:56:34;;;;;;;8.30;6.10;;;;;;;25.33;52.24;100494.45;104255;1254;60556;-64
2023/09/29 08:59:03;;;;;;;7.70;5.70;;;;;;;25.42;52.35;100494.56;104288;1278;73724;-64
2023/09/29 09:01:31;;;;;;;9.30;5.80;;;;;;;25.51;50.86;100493.20;104297;1259;69303;-65
2023/09/29 09:03:59;;;;;;;6.30;5.60;;;;;;;25.62;50.08;100491.10;104230;1278;72534;-65
2023/09/29 16:35:21;;;;;;;8.20;6.80;;;;;;;23.37;45.98;100224.09;101660;1290;600727;-63
2023/09/29 16:38:04;;;;;;;10.20;6.50;;;;;;;23.70;45.24;100218.58;103987;1266;59762;-61
2023/09/29 16:40:32;;;;;;;9.20;6.90;;;;;;;23.62;45.56;100220.11;103772;1264;59869;-62
2023/09/29 16:43:00;;;;;;;7.40;6.60;;;;;;;23.54;45.49;100221.21;106350;1264;72013;-62
2023/09/29 16:45:28;;;;;;;;;;;;;;;23.47;45.42;100222.89;106822;1266;69982;-62
2023/09/29 16:47:56;;;;;;;12.20;8.30;;;;;;;23.38;45.24;100224.58;104322;1261;437364;-62
2023/09/29 16:50:27;;;;;;;11.90;10.60;;;;;;;23.27;45.43;100224.84;104626;1263;59770;-61
2023/09/29 16:52:55;;;;;;;20.00;11.40;;;;;;;23.19;45.85;100225.38;103966;1267;59876;-62
2023/09/29 16:55:23;;;;;;;16.00;11.50;;;;;;;23.10;46.15;100224.46;104061;1264;71364;-62
2023/09/29 16:57:51;;;;;;;17.50;12.50;;;;;;;23.04;46.50;100224.80;104154;1263;69341;-61
2023/09/29 17:00:20;;;;;;;16.70;12.80;;;;;;;22.99;46.48;100226.45;103902;1269;71730;-62
2023/09/29 17:02:48;;;;;;;;;;;;;;;22.90;46.95;100230.06;103890;1266;60847;-62
2023/09/29 17:05:16;;;;;;;19.40;12.40;;;;;;;22.83;47.17;100229.80;103992;1263;59701;-61
2023/09/29 17:07:44;;;;;;;14.00;10.90;;;;;;;22.78;46.97;100227.72;103997;1269;73156;-62
2023/09/29 17:10:12;;;;;;;15.10;10.50;;;;;;;22.73;47.08;100228.19;103905;1272;69674;-61
2023/09/29 17:12:43;;;;;;;12.50;9.10;;;;;;;22.70;47.10;100227.36;103883;1263;73171;-61
2023/09/29 17:15:12;;;;;;;12.80;9.60;;;;;;;22.69;46.85;100227.03;103966;1263;60231;-61
2023/09/29 17:17:41;;;;;;;13.70;7.70;;;;;;;22.70;46.16;100228.45;104029;1264;59992;-62
2023/09/29 17:20:10;;;;;;;13.30;7.60;;;;;;;22.71;45.60;100230.13;104154;1264;73145;-64
2023/09/29 17:22:39;;;;;;;8.50;7.00;;;;;;;22.75;45.90;100229.91;103976;1273;69040;-62
2023/09/29 17:25:08;;;;;;;12.50;7.40;;;;;;;22.77;46.35;100231.95;103875;1267;72630;-62
2023/09/29 17:27:36;;;;;;;10.90;7.70;;;;;;;22.75;46.17;100227.08;104009;1260;60826;-63
2023/09/29 17:30:04;;;;;;;10.00;7.40;;;;;;;22.73;46.73;100226.73;103856;1263;60991;-63
2023/09/29 17:32:32;;;;;;;14.00;7.40;;;;;;;22.68;47.20;100226.61;103789;1267;73107;-63
2023/09/29 17:35:00;;;;;;;12.90;7.50;;;;;;;22.60;47.82;100228.16;103841;1266;69199;-63
2023/09/29 17:37:29;;;;;;;12.50;8.70;;;;;;;22.52;48.13;100229.55;103847;1282;71275;-61
2023/09/29 17:39:57;;;;;;;25.30;11.80;;;;;;;22.44;48.07;100228.42;103831;1258;60199;-62
2023/09/29 17:42:24;;;;;;;;;;;;;;;22.34;48.93;100225.17;103923;1258;60004;-63
2023/09/29 17:44:52;;;;;;;22.30;14.90;;;;;;;22.26;49.39;100230.79;103931;1264;73311;-62
2023/09/29 17:47:20;;;;;;;;;;;;;;;22.23;49.51;100227.45;107173;1260;69918;-63
2023/09/29 17:49:48;;;;;;;24.60;17.30;;;;;;;22.19;49.97;100223.87;104405;1264;73261;-62
2023/09/29 17:52:18;;;;;;;29.90;17.80;;;;;;;22.15;50.37;100224.88;104244;1257;59777;-64
2023/09/29 17:54:46;;;;;;;31.50;17.90;;;;;;;22.13;50.61;100224.70;107747;1257;60141;-65
2023/09/29 17:57:14;;;;;;;27.70;18.50;;;;;;;22.10;51.14;100226.48;106590;1257;72871;-64
2023/09/29 17:59:42;;;;;;;33.10;18.80;;;;;;;22.09;51.69;100224.86;104255;1257;69615;-64
2023/09/29 18:02:10;;;;;;;;;;;;;;;22.03;52.05;100222.48;104210;1258;71754;-62
2023/09/29 18:04:38;;;;;;;28.00;18.10;;;;;;;21.94;52.56;100227.11;104317;1263;59924;-63
2023/09/29 18:07:06;;;;;;;25.20;17.10;;;;;;;21.86;52.52;100227.08;104220;1254;59688;-62
2023/09/29 18:09:34;;;;;;;;;;;;;;;21.76;52.90;100225.34;104277;1272;72629;-63
2023/09/29 18:12:04;;;;;;;22.50;14.70;;;;;;;21.71;53.31;100229.55;104199;1261;68971;-64
2023/09/29 18:14:32;;;;;;;20.60;14.80;;;;;;;21.65;53.45;100231.97;104169;1255;72371;-64
2023/09/29 18:17:00;;;;;;;;;;;;;;;21.59;53.68;100233.11;104238;1260;59812;-62
2023/09/29 18:19:28;;;;;;;24.10;12.20;;;;;;;21.56;53.69;100231.59;104688;1257;59633;-61
2023/09/29 18:21:55;;;;;;;;;;;;;;;21.52;53.58;100231.23;104401;1269;72832;-61
2023/09/29 18:24:23;;;;;;;;;;;;;;;21.47;53.95;100232.90;107857;1257;69517;-65
2023/09/29 18:26:53;;;;;;;16.40;10.90;;;;;;;21.48;54.40;100231.55;106877;1257;72370;-65
2023/09/29 18:29:20;;;;;;;;;;;;;;;21.50;54.06;100231.52;104874;1262;60388;-66
2023/09/29 18:31:48;;;;;;;;;;;;;;;21.53;54.14;100231.51;104362;1267;60569;-66
2023/09/29 18:34:16;;;;;;;13.20;10.80;;;;;;;21.55;53.89;100229.31;104362;1257;72864;-64
2023/09/29 18:36:44;;;;;;;15.10;11.10;;;;;;;21.56;53.80;100230.86;104350;1257;70593;-64
2023/09/29 18:39:14;;;;;;;16.90;12.10;;;;;;;21.53;54.48;100228.59;104294;1260;72505;-64
2023/09/29 18:41:42;;;;;;;19.20;13.10;;;;;;;21.49;54.93;100227.70;104137;1271;59895;-64
2023/09/29 18:44:10;;;;;;;21.00;11.90;;;;;;;21.45;55.09;100222.90;104431;1258;59841;-65
2023/09/29 18:46:38;;;;;;;22.40;12.60;;;;;;;21.37;55.63;100222.55;107873;1254;75100;-62